createdAt,value
2019-03-12T00:00:43.753Z,0.00
2019-03-12T00:01:43.737Z,0.00
2019-03-12T00:02:43.730Z,0.00
2019-03-12T00:03:43.724Z,0.00
2019-03-12T00:04:43.703Z,0.00
2019-03-12T00:05:43.693Z,0.00
2019-03-12T00:06:43.678Z,0.00
2019-03-12T00:07:43.673Z,0.00
2019-03-12T00:08:43.665Z,0.00
2019-03-12T00:09:43.645Z,0.00
2019-03-12T00:10:43.639Z,0.00
2019-03-12T00:11:43.640Z,0.00
2019-03-12T00:12:43.613Z,0.00
2019-03-12T00:13:43.604Z,0.00
2019-03-12T00:14:43.595Z,0.00
2019-03-12T00:15:43.587Z,0.00
2019-03-12T00:16:43.581Z,0.00
2019-03-12T00:17:43.568Z,0.00
2019-03-12T00:18:43.549Z,0.00
2019-03-12T00:19:43.542Z,0.00
2019-03-12T00:20:43.535Z,0.00
2019-03-12T00:21:43.526Z,0.00
2019-03-12T00:22:43.531Z,0.00
2019-03-12T00:23:43.498Z,0.00
2019-03-12T00:24:43.489Z,0.00
2019-03-12T00:25:43.481Z,0.00
2019-03-12T00:26:43.484Z,0.00
2019-03-12T00:27:43.464Z,0.00
2019-03-12T00:28:43.456Z,0.00
2019-03-12T00:29:43.431Z,0.00
2019-03-12T00:30:43.425Z,0.00
2019-03-12T00:31:43.419Z,0.00
2019-03-12T00:32:43.411Z,0.00
2019-03-12T00:33:43.401Z,0.00
2019-03-12T00:34:43.381Z,0.00
2019-03-12T00:35:43.377Z,0.00
2019-03-12T00:36:43.365Z,0.00
2019-03-12T00:37:43.359Z,0.00
2019-03-12T00:38:43.341Z,0.00
2019-03-12T00:39:43.336Z,0.00
2019-03-12T00:40:43.319Z,0.00
2019-03-12T00:41:43.307Z,0.00
2019-03-12T00:42:43.298Z,0.00
2019-03-12T00:43:43.296Z,0.00
2019-03-12T00:44:43.279Z,0.00
2019-03-12T00:45:43.281Z,0.00
2019-03-12T00:46:43.263Z,0.00
2019-03-12T00:47:43.251Z,0.00
2019-03-12T00:48:43.239Z,0.00
2019-03-12T00:49:43.247Z,0.00
2019-03-12T00:50:43.219Z,0.00
2019-03-12T00:51:43.215Z,0.00
2019-03-12T00:52:43.199Z,0.00
2019-03-12T00:53:43.184Z,0.00
2019-03-12T00:54:43.172Z,0.00
2019-03-12T00:55:43.162Z,0.00
2019-03-12T00:56:43.160Z,0.00
2019-03-12T00:57:43.157Z,0.00
2019-03-12T00:58:43.132Z,0.00
2019-03-12T00:59:43.123Z,0.00
2019-03-12T01:00:43.107Z,0.00
2019-03-12T01:01:43.107Z,0.00
2019-03-12T01:02:43.099Z,0.00
2019-03-12T01:03:43.077Z,0.00
2019-03-12T01:04:43.069Z,0.00
2019-03-12T01:05:43.066Z,0.00
2019-03-12T01:06:43.053Z,0.00
2019-03-12T01:07:43.040Z,0.00
2019-03-12T01:08:43.032Z,0.00
2019-03-12T01:09:43.017Z,0.00
2019-03-12T01:10:43.007Z,0.00
2019-03-12T01:11:42.993Z,0.00
2019-03-12T01:12:43.007Z,0.00
2019-03-12T01:13:42.979Z,0.00
2019-03-12T01:14:42.973Z,0.00
2019-03-12T01:15:42.958Z,0.00
2019-03-12T01:16:42.947Z,0.00
2019-03-12T01:17:42.935Z,0.00
2019-03-12T01:18:42.919Z,0.00
2019-03-12T01:19:43.001Z,0.00
2019-03-12T01:20:42.901Z,0.00
2019-03-12T01:21:42.890Z,0.00
2019-03-12T01:22:42.875Z,0.00
2019-03-12T01:23:42.868Z,0.00
2019-03-12T01:24:42.859Z,0.00
2019-03-12T01:25:42.867Z,0.00
2019-03-12T01:26:42.839Z,0.00
2019-03-12T01:27:42.827Z,0.00
2019-03-12T01:28:42.817Z,0.00
2019-03-12T01:29:42.815Z,0.00
2019-03-12T01:30:42.795Z,0.00
2019-03-12T01:31:42.789Z,0.00
2019-03-12T01:32:42.781Z,0.00
2019-03-12T01:33:42.769Z,0.00
2019-03-12T01:34:42.761Z,0.00
2019-03-12T01:35:42.779Z,0.00
2019-03-12T01:36:42.741Z,0.00
2019-03-12T01:37:42.736Z,0.00
2019-03-12T01:38:42.717Z,0.00
2019-03-12T01:39:42.699Z,0.00
2019-03-12T01:40:42.698Z,0.00
2019-03-12T01:41:42.685Z,0.00
2019-03-12T01:42:42.672Z,0.00
2019-03-12T01:43:42.655Z,0.00
2019-03-12T01:44:42.662Z,0.00
2019-03-12T01:45:42.639Z,0.00
2019-03-12T01:46:42.625Z,0.00
2019-03-12T01:47:42.617Z,0.00
2019-03-12T01:48:42.619Z,0.00
2019-03-12T01:49:42.615Z,0.00
2019-03-12T01:50:42.586Z,0.00
2019-03-12T01:51:42.576Z,0.00
2019-03-12T01:52:42.563Z,0.00
2019-03-12T01:53:42.558Z,0.00
2019-03-12T01:54:42.559Z,0.00
2019-03-12T01:55:42.539Z,0.00
2019-03-12T01:56:42.529Z,0.00
2019-03-12T01:57:42.515Z,0.00
2019-03-12T01:58:42.541Z,0.00
2019-03-12T01:59:42.493Z,0.00
2019-03-12T02:00:42.493Z,0.00
2019-03-12T02:01:42.472Z,0.00
2019-03-12T02:02:42.469Z,0.00
2019-03-12T02:03:42.451Z,0.00
2019-03-12T02:04:42.437Z,0.00
2019-03-12T02:05:42.439Z,0.00
2019-03-12T02:06:42.413Z,0.00
2019-03-12T02:07:42.413Z,0.00
2019-03-12T02:08:42.397Z,0.00
2019-03-12T02:09:42.387Z,0.00
2019-03-12T02:10:42.372Z,0.00
2019-03-12T02:11:42.383Z,0.00
2019-03-12T02:12:42.372Z,0.00
2019-03-12T02:13:42.343Z,0.00
2019-03-12T02:14:42.349Z,0.00
2019-03-12T02:15:42.332Z,0.00
2019-03-12T02:16:42.319Z,0.00
2019-03-12T02:17:42.311Z,0.00
2019-03-12T02:18:42.296Z,0.00
2019-03-12T02:19:42.281Z,0.00
2019-03-12T02:20:42.267Z,0.00
2019-03-12T02:21:42.271Z,0.00
2019-03-12T02:22:42.253Z,0.00
2019-03-12T02:23:42.249Z,0.00
2019-03-12T02:24:52.247Z,0.00
2019-03-12T02:25:43.217Z,0.00
2019-03-12T02:26:42.212Z,0.00
2019-03-12T02:27:42.196Z,0.00
2019-03-12T02:28:42.193Z,0.00
2019-03-12T02:29:42.207Z,0.00
2019-03-12T02:30:42.166Z,0.00
2019-03-12T02:31:42.151Z,0.00
2019-03-12T02:32:44.544Z,0.00
2019-03-12T02:33:42.139Z,0.00
2019-03-12T02:34:42.151Z,0.00
2019-03-12T02:35:42.120Z,0.00
2019-03-12T02:36:42.113Z,0.00
2019-03-12T02:37:42.102Z,0.00
2019-03-12T02:38:42.098Z,0.00
2019-03-12T02:39:42.074Z,0.00
2019-03-12T02:40:42.073Z,0.00
2019-03-12T02:41:42.048Z,0.00
2019-03-12T02:42:42.039Z,0.00
2019-03-12T02:43:42.040Z,0.00
2019-03-12T02:44:42.036Z,0.00
2019-03-12T02:45:42.019Z,0.00
2019-03-12T02:46:41.993Z,0.00
2019-03-12T02:47:42.003Z,0.00
2019-03-12T02:48:41.978Z,0.00
2019-03-12T02:49:41.966Z,0.00
2019-03-12T02:50:41.975Z,0.00
2019-03-12T02:51:42.051Z,0.00
2019-03-12T02:52:42.007Z,0.00
2019-03-12T02:53:41.927Z,0.00
2019-03-12T02:54:41.909Z,0.00
2019-03-12T02:55:41.905Z,0.00
2019-03-12T02:56:41.897Z,0.00
2019-03-12T02:57:41.882Z,0.00
2019-03-12T02:58:41.871Z,0.00
2019-03-12T02:59:41.862Z,0.00
2019-03-12T03:00:41.859Z,0.00
2019-03-12T03:01:41.845Z,0.00
2019-03-12T03:02:41.832Z,0.00
2019-03-12T03:03:41.836Z,0.00
2019-03-12T03:04:41.814Z,0.00
2019-03-12T03:05:41.793Z,0.00
2019-03-12T03:06:41.789Z,0.00
2019-03-12T03:07:41.787Z,0.00
2019-03-12T03:08:41.771Z,0.00
2019-03-12T03:09:41.763Z,0.00
2019-03-12T03:10:41.759Z,0.00
2019-03-12T03:11:41.741Z,0.00
2019-03-12T03:12:41.727Z,0.00
2019-03-12T03:13:41.716Z,0.00
2019-03-12T03:14:41.721Z,0.00
2019-03-12T03:15:41.697Z,0.00
2019-03-12T03:16:41.685Z,0.00
2019-03-12T03:17:41.671Z,0.00
2019-03-12T03:18:41.664Z,0.00
2019-03-12T03:19:41.654Z,0.00
2019-03-12T03:20:41.664Z,0.00
2019-03-12T03:21:41.628Z,0.00
2019-03-12T03:22:41.617Z,0.00
2019-03-12T03:23:41.615Z,0.00
2019-03-12T03:24:41.610Z,0.00
2019-03-12T03:25:41.588Z,0.00
2019-03-12T03:26:41.582Z,0.00
2019-03-12T03:27:41.567Z,0.00
2019-03-12T03:28:41.552Z,0.00
2019-03-12T03:29:41.546Z,0.00
2019-03-12T03:30:41.542Z,0.00
2019-03-12T03:31:41.532Z,0.00
2019-03-12T03:32:41.519Z,0.00
2019-03-12T03:33:41.509Z,0.00
2019-03-12T03:34:41.541Z,0.00
2019-03-12T03:35:41.491Z,0.00
2019-03-12T03:36:41.477Z,0.00
2019-03-12T03:37:41.473Z,0.00
2019-03-12T03:38:41.455Z,0.00
2019-03-12T03:39:41.433Z,0.00
2019-03-12T03:40:41.427Z,0.00
2019-03-12T03:41:41.421Z,0.00
2019-03-12T03:42:41.409Z,0.00
2019-03-12T03:43:41.432Z,0.00
2019-03-12T03:44:41.385Z,0.00
2019-03-12T03:45:41.403Z,0.00
2019-03-12T03:46:41.366Z,0.00
2019-03-12T03:47:41.374Z,0.00
2019-03-12T03:48:41.344Z,0.00
2019-03-12T03:49:41.339Z,0.00
2019-03-12T03:50:41.325Z,0.00
2019-03-12T03:51:41.313Z,0.00
2019-03-12T03:52:41.441Z,0.00
2019-03-12T03:53:41.291Z,0.00
2019-03-12T03:54:41.289Z,0.00
2019-03-12T03:55:41.264Z,0.00
2019-03-12T03:56:41.261Z,0.00
2019-03-12T03:57:41.248Z,0.00
2019-03-12T03:58:41.232Z,0.00
2019-03-12T03:59:41.232Z,0.00
2019-03-12T04:00:41.220Z,0.00
2019-03-12T04:01:41.207Z,0.00
2019-03-12T04:02:41.189Z,0.00
2019-03-12T04:03:41.190Z,0.00
2019-03-12T04:04:41.182Z,0.00
2019-03-12T04:05:41.162Z,0.00
2019-03-12T04:06:41.160Z,0.00
2019-03-12T04:07:41.141Z,0.00
2019-03-12T04:08:41.125Z,0.00
2019-03-12T04:09:41.124Z,0.00
2019-03-12T04:10:41.108Z,0.00
2019-03-12T04:11:41.106Z,0.00
2019-03-12T04:12:41.084Z,0.00
2019-03-12T04:13:41.077Z,0.00
2019-03-12T04:14:41.061Z,0.00
2019-03-12T04:15:41.053Z,0.00
2019-03-12T04:16:41.093Z,0.00
2019-03-12T04:17:41.066Z,0.00
2019-03-12T04:18:41.025Z,0.00
2019-03-12T04:19:41.010Z,0.00
2019-03-12T04:20:41.005Z,0.00
2019-03-12T04:21:41.000Z,0.00
2019-03-12T04:22:40.983Z,0.00
2019-03-12T04:23:40.978Z,0.00
2019-03-12T04:24:40.956Z,0.00
2019-03-12T04:25:40.939Z,0.00
2019-03-12T04:26:40.934Z,0.00
2019-03-12T04:27:40.923Z,0.00
2019-03-12T04:28:40.921Z,0.00
2019-03-12T04:29:40.903Z,0.00
2019-03-12T04:30:40.885Z,0.00
2019-03-12T04:31:40.897Z,0.00
2019-03-12T04:32:40.874Z,0.00
2019-03-12T04:33:40.861Z,0.00
2019-03-12T04:34:40.854Z,0.00
2019-03-12T04:35:40.841Z,0.00
2019-03-12T04:36:40.834Z,0.00
2019-03-12T04:37:40.816Z,0.00
2019-03-12T04:38:40.816Z,0.00
2019-03-12T04:39:40.799Z,0.00
2019-03-12T04:40:40.790Z,0.00
2019-03-12T04:41:40.769Z,0.00
2019-03-12T04:42:40.805Z,0.00
2019-03-12T04:43:40.808Z,0.00
2019-03-12T04:44:40.739Z,0.00
2019-03-12T04:45:40.736Z,0.00
2019-03-12T04:46:40.713Z,0.00
2019-03-12T04:47:40.705Z,0.00
2019-03-12T04:48:40.695Z,0.00
2019-03-12T04:49:40.682Z,0.00
2019-03-12T04:50:40.677Z,0.00
2019-03-12T04:51:40.667Z,0.00
2019-03-12T04:52:40.650Z,0.00
2019-03-12T04:53:40.639Z,0.00
2019-03-12T04:54:40.635Z,0.00
2019-03-12T04:55:40.633Z,0.00
2019-03-12T04:56:40.616Z,0.00
2019-03-12T04:57:40.601Z,0.00
2019-03-12T04:58:40.590Z,0.00
2019-03-12T04:59:40.583Z,0.00
2019-03-12T05:00:40.569Z,4.00
2019-03-12T05:01:40.558Z,4.00
2019-03-12T05:02:40.543Z,0.00
2019-03-12T05:03:40.533Z,0.00
2019-03-12T05:04:40.519Z,0.00
2019-03-12T05:05:40.514Z,4.00
2019-03-12T05:06:40.503Z,4.00
2019-03-12T05:07:40.487Z,0.00
2019-03-12T05:08:40.484Z,4.00
2019-03-12T05:09:40.467Z,4.00
2019-03-12T05:10:40.458Z,4.00
2019-03-12T05:11:40.447Z,8.00
2019-03-12T05:12:40.451Z,12.00
2019-03-12T05:13:40.428Z,8.00
2019-03-12T05:14:40.420Z,8.00
2019-03-12T05:15:40.407Z,8.00
2019-03-12T05:16:40.393Z,12.00
2019-03-12T05:17:40.378Z,20.00
2019-03-12T05:18:40.381Z,20.00
2019-03-12T05:19:40.362Z,24.00
2019-03-12T05:20:40.348Z,28.00
2019-03-12T05:21:40.339Z,24.00
2019-03-12T05:22:40.334Z,28.00
2019-03-12T05:23:40.314Z,36.00
2019-03-12T05:24:40.305Z,48.00
2019-03-12T05:25:40.303Z,48.00
2019-03-12T05:26:40.283Z,52.00
2019-03-12T05:27:40.275Z,52.00
2019-03-12T05:28:40.264Z,64.00
2019-03-12T05:29:40.253Z,72.00
2019-03-12T05:30:40.248Z,72.00
2019-03-12T05:31:40.236Z,64.00
2019-03-12T05:32:40.218Z,64.00
2019-03-12T05:33:40.210Z,64.00
2019-03-12T05:34:40.201Z,72.00
2019-03-12T05:35:40.187Z,72.00
2019-03-12T05:36:40.177Z,80.00
2019-03-12T05:37:40.191Z,92.00
2019-03-12T05:38:40.157Z,92.00
2019-03-12T05:39:40.149Z,88.00
2019-03-12T05:40:40.137Z,92.00
2019-03-12T05:41:40.149Z,108.00
2019-03-12T05:42:40.117Z,124.00
2019-03-12T05:43:40.100Z,120.00
2019-03-12T05:44:40.091Z,136.00
2019-03-12T05:45:40.079Z,132.00
2019-03-12T05:46:40.076Z,128.00
2019-03-12T05:47:40.067Z,128.00
2019-03-12T05:48:40.061Z,132.00
2019-03-12T05:49:40.049Z,140.00
2019-03-12T05:50:40.032Z,148.00
2019-03-12T05:51:40.027Z,156.00
2019-03-12T05:52:40.012Z,164.00
2019-03-12T05:53:40.006Z,172.00
2019-03-12T05:54:40.005Z,180.00
2019-03-12T05:55:39.975Z,172.00
2019-03-12T05:56:39.965Z,176.00
2019-03-12T05:57:39.959Z,220.00
2019-03-12T05:58:39.947Z,256.00
2019-03-12T05:59:39.941Z,280.00
2019-03-12T06:00:39.915Z,352.00
2019-03-12T06:01:39.919Z,416.00
2019-03-12T06:02:39.898Z,468.00
2019-03-12T06:03:39.907Z,536.00
2019-03-12T06:04:39.906Z,484.00
2019-03-12T06:05:39.878Z,380.00
2019-03-12T06:06:39.859Z,356.00
2019-03-12T06:07:39.853Z,392.00
2019-03-12T06:08:39.838Z,436.00
2019-03-12T06:09:39.825Z,416.00
2019-03-12T06:10:39.819Z,436.00
2019-03-12T06:11:39.816Z,428.00
2019-03-12T06:12:39.799Z,400.00
2019-03-12T06:13:39.784Z,408.00
2019-03-12T06:14:39.775Z,432.00
2019-03-12T06:15:39.757Z,396.00
2019-03-12T06:16:39.768Z,376.00
2019-03-12T06:17:39.766Z,444.00
2019-03-12T06:18:39.732Z,412.00
2019-03-12T06:19:39.721Z,344.00
2019-03-12T06:20:39.719Z,312.00
2019-03-12T06:21:39.700Z,408.00
2019-03-12T06:22:39.697Z,536.00
2019-03-12T06:23:39.672Z,556.00
2019-03-12T06:24:39.690Z,532.00
2019-03-12T06:25:39.651Z,500.00
2019-03-12T06:26:39.653Z,468.00
2019-03-12T06:27:39.630Z,460.00
2019-03-12T06:28:39.635Z,592.00
2019-03-12T06:29:39.605Z,668.00
2019-03-12T06:30:39.613Z,596.00
2019-03-12T06:31:39.589Z,716.00
2019-03-12T06:32:39.580Z,892.00
2019-03-12T06:33:39.569Z,1156.00
2019-03-12T06:34:39.552Z,1216.00
2019-03-12T06:35:39.543Z,1240.00
2019-03-12T06:36:39.533Z,1196.00
2019-03-12T06:37:39.528Z,1380.00
2019-03-12T06:38:39.518Z,1232.00
2019-03-12T06:39:42.806Z,904.00
2019-03-12T06:40:39.517Z,740.00
2019-03-12T06:41:39.479Z,620.00
2019-03-12T06:42:39.467Z,544.00
2019-03-12T06:43:39.456Z,508.00
2019-03-12T06:44:39.452Z,508.00
2019-03-12T06:45:39.434Z,504.00
2019-03-12T06:46:39.424Z,512.00
2019-03-12T06:47:39.413Z,520.00
2019-03-12T06:48:39.401Z,504.00
2019-03-12T06:49:39.412Z,520.00
2019-03-12T06:50:39.387Z,520.00
2019-03-12T06:51:39.371Z,540.00
2019-03-12T06:52:39.361Z,588.00
2019-03-12T06:53:39.358Z,652.00
2019-03-12T06:54:39.350Z,680.00
2019-03-12T06:55:41.173Z,692.00
2019-03-12T06:56:39.323Z,660.00
2019-03-12T06:57:39.309Z,540.00
2019-03-12T06:58:39.298Z,440.00
2019-03-12T06:59:39.291Z,492.00
2019-03-12T07:00:39.271Z,728.00
2019-03-12T07:01:39.265Z,876.00
2019-03-12T07:02:39.257Z,1204.00
2019-03-12T07:03:39.244Z,1852.00
2019-03-12T07:04:39.229Z,2620.00
2019-03-12T07:05:39.221Z,2456.00
2019-03-12T07:06:39.221Z,1832.00
2019-03-12T07:07:41.603Z,1272.00
2019-03-12T07:08:40.189Z,1144.00
2019-03-12T07:09:39.176Z,1092.00
2019-03-12T07:10:39.169Z,912.00
2019-03-12T07:11:39.169Z,980.00
2019-03-12T07:12:39.151Z,980.00
2019-03-12T07:13:39.137Z,1184.00
2019-03-12T07:14:39.127Z,1540.00
2019-03-12T07:15:39.120Z,2180.00
2019-03-12T07:16:39.129Z,2528.00
2019-03-12T07:17:39.095Z,2000.00
2019-03-12T07:18:39.083Z,1468.00
2019-03-12T07:19:39.082Z,1212.00
2019-03-12T07:20:39.063Z,1320.00
2019-03-12T07:21:39.050Z,1492.00
2019-03-12T07:22:39.047Z,1724.00
2019-03-12T07:23:39.033Z,1568.00
2019-03-12T07:24:39.032Z,1456.00
2019-03-12T07:25:39.014Z,1548.00
2019-03-12T07:26:38.997Z,1944.00
2019-03-12T07:27:38.989Z,3072.00
2019-03-12T07:28:49.825Z,3036.00
2019-03-12T07:29:39.963Z,3208.00
2019-03-12T07:30:38.975Z,3328.00
2019-03-12T07:31:38.941Z,3392.00
2019-03-12T07:32:38.945Z,2976.00
2019-03-12T07:33:38.931Z,2116.00
2019-03-12T07:34:38.918Z,2052.00
2019-03-12T07:35:38.910Z,2664.00
2019-03-12T07:36:38.890Z,3044.00
2019-03-12T07:37:38.881Z,2828.00
2019-03-12T07:38:38.875Z,2224.00
2019-03-12T07:39:38.894Z,2000.00
2019-03-12T07:40:38.851Z,2156.00
2019-03-12T07:41:38.865Z,2448.00
2019-03-12T07:42:38.827Z,2648.00
2019-03-12T07:43:38.815Z,2144.00
2019-03-12T07:44:38.806Z,1800.00
2019-03-12T07:45:42.065Z,1780.00
2019-03-12T07:46:38.806Z,1680.00
2019-03-12T07:47:41.830Z,1640.00
2019-03-12T07:48:38.765Z,1680.00
2019-03-12T07:49:38.753Z,1472.00
2019-03-12T07:50:38.743Z,1540.00
2019-03-12T07:51:38.743Z,1700.00
2019-03-12T07:52:38.723Z,1600.00
2019-03-12T07:53:38.719Z,1388.00
2019-03-12T07:54:38.701Z,1296.00
2019-03-12T07:55:38.691Z,1724.00
2019-03-12T07:56:38.681Z,1568.00
2019-03-12T07:57:38.673Z,1448.00
2019-03-12T07:58:38.669Z,1576.00
2019-03-12T07:59:38.653Z,1580.00
2019-03-12T08:00:38.636Z,2032.00
2019-03-12T08:01:38.625Z,2252.00
2019-03-12T08:02:38.648Z,2272.00
2019-03-12T08:03:38.611Z,2100.00
2019-03-12T08:04:38.599Z,2048.00
2019-03-12T08:05:38.584Z,2164.00
2019-03-12T08:06:38.573Z,1980.00
2019-03-12T08:07:38.559Z,1844.00
2019-03-12T08:08:38.555Z,1940.00
2019-03-12T08:09:38.541Z,2012.00
2019-03-12T08:10:38.539Z,2160.00
2019-03-12T08:11:38.526Z,2276.00
2019-03-12T08:12:38.509Z,1956.00
2019-03-12T08:13:38.587Z,1928.00
2019-03-12T08:14:38.495Z,1668.00
2019-03-12T08:15:38.501Z,1544.00
2019-03-12T08:16:38.508Z,1648.00
2019-03-12T08:17:38.459Z,1904.00
2019-03-12T08:18:38.446Z,2144.00
2019-03-12T08:19:38.435Z,2252.00
2019-03-12T08:20:38.469Z,2456.00
2019-03-12T08:21:38.443Z,2416.00
2019-03-12T08:22:38.405Z,2408.00
2019-03-12T08:23:38.395Z,2928.00
2019-03-12T08:24:38.383Z,4536.00
2019-03-12T08:25:38.381Z,6032.00
2019-03-12T08:26:38.359Z,6600.00
2019-03-12T08:27:38.356Z,7420.00
2019-03-12T08:28:38.376Z,5088.00
2019-03-12T08:29:38.329Z,5172.00
2019-03-12T08:30:38.323Z,5224.00
2019-03-12T08:31:38.315Z,4228.00
2019-03-12T08:32:38.297Z,3408.00
2019-03-12T08:33:50.012Z,3012.00
2019-03-12T08:34:39.274Z,2892.00
2019-03-12T08:35:38.263Z,2960.00
2019-03-12T08:36:38.251Z,3180.00
2019-03-12T08:37:38.250Z,3060.00
2019-03-12T08:38:38.263Z,2884.00
2019-03-12T08:39:38.236Z,2804.00
2019-03-12T08:40:43.001Z,2896.00
2019-03-12T08:41:39.216Z,2644.00
2019-03-12T08:42:38.189Z,2608.00
2019-03-12T08:43:38.173Z,2444.00
2019-03-12T08:44:41.319Z,2216.00
2019-03-12T08:45:38.177Z,1976.00
2019-03-12T08:46:38.141Z,1896.00
2019-03-12T08:47:38.138Z,2060.00
2019-03-12T08:48:38.129Z,2204.00
2019-03-12T08:49:38.158Z,2356.00
2019-03-12T08:50:38.111Z,2580.00
2019-03-12T08:51:38.095Z,2352.00
2019-03-12T08:52:38.076Z,2400.00
2019-03-12T08:53:38.071Z,2808.00
2019-03-12T08:54:38.055Z,2916.00
2019-03-12T08:55:38.055Z,2144.00
2019-03-12T08:56:38.053Z,2184.00
2019-03-12T08:57:38.086Z,2880.00
2019-03-12T08:58:38.016Z,2796.00
2019-03-12T08:59:38.015Z,2896.00
2019-03-12T09:00:38.011Z,2684.00
2019-03-12T09:01:38.002Z,2332.00
2019-03-12T09:02:38.001Z,3548.00
2019-03-12T09:03:37.967Z,7772.00
2019-03-12T09:04:37.957Z,6068.00
2019-03-12T09:05:37.951Z,5828.00
2019-03-12T09:06:37.937Z,16032.00
2019-03-12T09:07:37.926Z,5164.00
2019-03-12T09:08:37.933Z,6840.00
2019-03-12T09:09:37.898Z,3980.00
2019-03-12T09:10:37.889Z,3140.00
2019-03-12T09:11:37.879Z,2612.00
2019-03-12T09:12:37.875Z,2592.00
2019-03-12T09:13:37.865Z,2652.00
2019-03-12T09:14:37.855Z,3480.00
2019-03-12T09:15:37.833Z,4568.00
2019-03-12T09:16:37.830Z,5880.00
2019-03-12T09:17:37.818Z,6360.00
2019-03-12T09:18:37.815Z,7488.00
2019-03-12T09:19:37.792Z,10240.00
2019-03-12T09:20:37.796Z,11712.00
2019-03-12T09:21:37.771Z,10620.00
2019-03-12T09:22:37.773Z,9980.00
2019-03-12T09:23:37.749Z,11580.00
2019-03-12T09:24:37.771Z,25920.00
2019-03-12T09:25:37.725Z,19200.00
2019-03-12T09:26:37.717Z,19168.00
2019-03-12T09:27:37.735Z,24064.00
2019-03-12T09:28:37.698Z,21280.00
2019-03-12T09:29:37.693Z,19584.00
2019-03-12T09:30:39.674Z,17920.00
2019-03-12T09:31:37.667Z,23872.00
2019-03-12T09:32:37.651Z,48864.00
2019-03-12T09:33:37.643Z,42304.00
2019-03-12T09:34:37.640Z,101440.00
2019-03-12T09:35:37.630Z,95392.00
2019-03-12T09:36:37.623Z,14064.00
2019-03-12T09:37:37.616Z,11928.00
2019-03-12T09:38:37.591Z,56224.00
2019-03-12T09:39:37.583Z,15068.00
2019-03-12T09:40:37.566Z,15416.00
2019-03-12T09:41:37.565Z,11004.00
2019-03-12T09:42:37.547Z,36672.00
2019-03-12T09:43:37.538Z,20064.00
2019-03-12T09:44:37.530Z,11172.00
2019-03-12T09:45:37.523Z,10684.00
2019-03-12T09:46:37.513Z,8928.00
2019-03-12T09:47:37.528Z,13144.00
2019-03-12T09:48:37.485Z,16016.00
2019-03-12T09:49:37.477Z,40320.00
2019-03-12T09:50:37.475Z,32544.00
2019-03-12T09:51:37.457Z,52864.00
2019-03-12T09:52:37.445Z,44128.00
2019-03-12T09:53:37.431Z,15784.00
2019-03-12T09:54:37.417Z,50016.00
2019-03-12T09:55:37.405Z,45760.00
2019-03-12T09:56:37.397Z,35680.00
2019-03-12T09:57:37.387Z,21280.00
2019-03-12T09:58:37.387Z,39168.00
2019-03-12T09:59:37.359Z,46048.00
2019-03-12T10:00:37.372Z,20960.00
2019-03-12T10:01:37.346Z,11208.00
2019-03-12T10:02:37.331Z,16120.00
2019-03-12T10:03:37.342Z,14204.00
2019-03-12T10:04:37.317Z,24320.00
2019-03-12T10:05:37.299Z,13948.00
2019-03-12T10:06:37.293Z,13840.00
2019-03-12T10:07:40.029Z,21184.00
2019-03-12T10:08:37.265Z,10424.00
2019-03-12T10:09:37.253Z,12656.00
2019-03-12T10:10:37.246Z,11952.00
2019-03-12T10:11:37.240Z,10456.00
2019-03-12T10:12:37.223Z,7872.00
2019-03-12T10:13:37.239Z,6580.00
2019-03-12T10:14:37.201Z,8312.00
2019-03-12T10:15:37.195Z,19776.00
2019-03-12T10:16:37.179Z,40352.00
2019-03-12T10:17:37.169Z,23232.00
2019-03-12T10:18:37.157Z,15260.00
2019-03-12T10:19:37.148Z,11668.00
2019-03-12T10:20:37.142Z,36992.00
2019-03-12T10:21:37.133Z,19584.00
2019-03-12T10:22:37.113Z,112992.00
2019-03-12T10:23:37.117Z,110336.00
2019-03-12T10:24:37.091Z,31040.00
2019-03-12T10:25:37.083Z,10264.00
2019-03-12T10:26:37.071Z,9480.00
2019-03-12T10:27:37.059Z,106624.00
2019-03-12T10:28:37.047Z,18944.00
2019-03-12T10:29:37.041Z,11404.00
2019-03-12T10:30:37.690Z,10580.00
2019-03-12T10:31:37.019Z,9756.00
2019-03-12T10:32:37.009Z,9044.00
2019-03-12T10:33:36.993Z,8972.00
2019-03-12T10:34:36.982Z,14112.00
2019-03-12T10:35:36.973Z,13900.00
2019-03-12T10:36:36.970Z,103968.00
2019-03-12T10:37:36.955Z,9836.00
2019-03-12T10:38:36.935Z,6900.00
2019-03-12T10:39:36.925Z,10336.00
2019-03-12T10:40:36.919Z,7644.00
2019-03-12T10:41:36.911Z,7936.00
2019-03-12T10:42:36.902Z,32928.00
2019-03-12T10:43:36.897Z,11872.00
2019-03-12T10:44:36.894Z,10440.00
2019-03-12T10:45:36.861Z,10144.00
2019-03-12T10:46:36.851Z,16152.00
2019-03-12T10:47:36.865Z,14452.00
2019-03-12T10:48:36.836Z,88608.00
2019-03-12T10:49:37.851Z,19552.00
2019-03-12T10:50:36.814Z,22624.00
2019-03-12T10:51:36.801Z,15968.00
2019-03-12T10:52:36.795Z,97408.00
2019-03-12T10:53:36.779Z,77440.00
2019-03-12T10:54:36.774Z,76576.00
2019-03-12T10:55:36.755Z,71776.00
2019-03-12T10:56:36.748Z,56096.00
2019-03-12T10:57:36.759Z,9532.00
2019-03-12T10:58:36.728Z,8700.00
2019-03-12T10:59:36.734Z,6648.00
2019-03-12T11:00:36.704Z,4920.00
2019-03-12T11:01:36.694Z,11216.00
2019-03-12T11:02:36.683Z,12136.00
2019-03-12T11:03:36.667Z,9416.00
2019-03-12T11:04:36.681Z,9360.00
2019-03-12T11:05:45.835Z,9540.00
2019-03-12T11:06:37.641Z,8232.00
2019-03-12T11:07:36.630Z,12200.00
2019-03-12T11:08:36.613Z,11920.00
2019-03-12T11:09:36.611Z,7592.00
2019-03-12T11:10:36.611Z,6264.00
2019-03-12T11:11:36.582Z,4812.00
2019-03-12T11:12:36.599Z,4504.00
2019-03-12T11:13:36.579Z,10860.00
2019-03-12T11:14:36.561Z,6988.00
2019-03-12T11:15:36.541Z,7184.00
2019-03-12T11:16:36.528Z,6972.00
2019-03-12T11:17:48.808Z,6036.00
2019-03-12T11:18:37.514Z,4992.00
2019-03-12T11:19:36.497Z,28864.00
2019-03-12T11:20:36.487Z,59680.00
2019-03-12T11:21:36.491Z,18080.00
2019-03-12T11:22:36.483Z,58048.00
2019-03-12T11:23:36.478Z,69760.00
2019-03-12T11:24:36.453Z,55840.00
2019-03-12T11:25:36.433Z,59584.00
2019-03-12T11:26:36.421Z,7036.00
2019-03-12T11:27:36.411Z,14252.00
2019-03-12T11:28:36.406Z,70720.00
2019-03-12T11:29:36.406Z,48384.00
2019-03-12T11:30:36.372Z,6932.00
2019-03-12T11:31:36.367Z,7592.00
2019-03-12T11:32:36.361Z,6436.00
2019-03-12T11:33:36.345Z,5836.00
2019-03-12T11:34:38.614Z,5864.00
2019-03-12T11:35:39.258Z,8180.00
2019-03-12T11:36:36.315Z,26080.00
2019-03-12T11:37:36.306Z,24576.00
2019-03-12T11:38:36.301Z,24000.00
2019-03-12T11:39:36.304Z,12900.00
2019-03-12T11:40:36.279Z,24704.00
2019-03-12T11:41:36.257Z,9340.00
2019-03-12T11:42:36.246Z,11548.00
2019-03-12T11:43:36.246Z,11920.00
2019-03-12T11:44:36.235Z,9316.00
2019-03-12T11:45:37.433Z,8912.00
2019-03-12T11:46:43.367Z,12460.00
2019-03-12T11:47:37.216Z,13380.00
2019-03-12T11:48:36.206Z,13708.00
2019-03-12T11:49:36.183Z,10608.00
2019-03-12T11:50:36.168Z,10204.00
2019-03-12T11:51:36.152Z,11056.00
2019-03-12T11:52:36.147Z,9004.00
2019-03-12T11:53:36.139Z,9548.00
2019-03-12T11:54:36.122Z,9788.00
2019-03-12T11:55:36.105Z,8968.00
2019-03-12T11:56:36.137Z,8456.00
2019-03-12T11:57:36.082Z,9064.00
2019-03-12T11:58:36.113Z,9536.00
2019-03-12T11:59:36.070Z,9408.00
2019-03-12T12:00:36.066Z,10076.00
2019-03-12T12:01:36.044Z,8924.00
2019-03-12T12:02:36.134Z,8656.00
2019-03-12T12:03:36.026Z,8572.00
2019-03-12T12:04:36.013Z,12216.00
2019-03-12T12:05:35.996Z,9196.00
2019-03-12T12:06:35.998Z,11784.00
2019-03-12T12:07:36.007Z,10452.00
2019-03-12T12:08:36.042Z,12532.00
2019-03-12T12:09:35.979Z,13384.00
2019-03-12T12:10:35.941Z,7408.00
2019-03-12T12:11:35.940Z,9424.00
2019-03-12T12:12:35.919Z,7564.00
2019-03-12T12:13:35.925Z,6748.00
2019-03-12T12:14:35.902Z,6820.00
2019-03-12T12:15:35.891Z,7364.00
2019-03-12T12:16:35.877Z,8752.00
2019-03-12T12:17:35.874Z,8420.00
2019-03-12T12:18:35.860Z,7408.00
2019-03-12T12:19:35.853Z,7404.00
2019-03-12T12:20:35.835Z,8816.00
2019-03-12T12:21:35.823Z,6432.00
2019-03-12T12:22:35.811Z,6216.00
2019-03-12T12:23:35.799Z,6708.00
2019-03-12T12:24:35.799Z,6040.00
2019-03-12T12:25:35.812Z,6400.00
2019-03-12T12:26:35.765Z,6616.00
2019-03-12T12:27:35.757Z,6500.00
2019-03-12T12:28:35.747Z,6140.00
2019-03-12T12:29:35.735Z,6900.00
2019-03-12T12:30:35.730Z,7248.00
2019-03-12T12:31:35.709Z,6824.00
2019-03-12T12:32:35.710Z,6692.00
2019-03-12T12:33:35.691Z,6504.00
2019-03-12T12:34:35.705Z,6212.00